sensor_id;sensor_type;location;lat;lon;timestamp;pressure;altitude;pressure_sealevel;temperature;humidity
11830;BME280;5972;42.134;24.718;2023-12-22T00:00:32;98201.88;;;4.04;100.00
11830;BME280;5972;42.134;24.718;2023-12-22T00:03:00;98199.66;;;4.06;100.00
11830;BME280;5972;42.134;24.718;2023-12-22T00:05:27;98196.19;;;4.05;100.00
11830;BME280;5972;42.134;24.718;2023-12-22T00:07:54;98186.25;;;3.94;100.00
11830;BME280;5972;42.134;24.718;2023-12-22T00:10:21;98177.78;;;3.92;100.00
11830;BME280;5972;42.134;24.718;2023-12-22T00:12:48;98173.88;;;3.89;100.00
11830;BME280;5972;42.134;24.718;2023-12-22T00:15:15;98168.41;;;3.86;100.00
11830;BME280;5972;42.134;24.718;2023-12-22T00:17:42;98157.91;;;3.81;100.00
11830;BME280;5972;42.134;24.718;2023-12-22T00:20:11;98133.03;;;3.68;100.00
11830;BME280;5972;42.134;24.718;2023-12-22T00:22:39;98168.53;;;3.89;100.00
11830;BME280;5972;42.134;24.718;2023-12-22T00:25:07;98161.41;;;3.93;100.00
11830;BME280;5972;42.134;24.718;2023-12-22T00:27:35;98162.50;;;3.92;100.00
11830;BME280;5972;42.134;24.718;2023-12-22T00:30:02;98169.31;;;3.90;100.00
11830;BME280;5972;42.134;24.718;2023-12-22T00:32:29;98175.84;;;3.80;100.00
11830;BME280;5972;42.134;24.718;2023-12-22T00:34:56;98164.38;;;3.67;100.00
11830;BME280;5972;42.134;24.718;2023-12-22T00:37:25;98171.81;;;3.74;100.00
11830;BME280;5972;42.134;24.718;2023-12-22T00:39:52;98163.81;;;3.74;100.00
11830;BME280;5972;42.134;24.718;2023-12-22T00:42:19;98172.53;;;3.83;100.00
11830;BME280;5972;42.134;24.718;2023-12-22T00:44:46;98168.97;;;4.03;100.00
11830;BME280;5972;42.134;24.718;2023-12-22T00:47:13;98166.63;;;4.02;100.00
11830;BME280;5972;42.134;24.718;2023-12-22T00:49:40;98163.84;;;3.98;100.00
11830;BME280;5972;42.134;24.718;2023-12-22T00:52:07;98167.19;;;3.95;100.00
11830;BME280;5972;42.134;24.718;2023-12-22T00:54:35;98170.31;;;4.09;100.00
11830;BME280;5972;42.134;24.718;2023-12-22T00:57:02;98147.81;;;4.10;100.00
11830;BME280;5972;42.134;24.718;2023-12-22T00:59:29;98173.09;;;4.13;100.00
11830;BME280;5972;42.134;24.718;2023-12-22T01:01:57;98169.56;;;4.21;100.00
11830;BME280;5972;42.134;24.718;2023-12-22T01:04:23;98157.75;;;4.22;100.00
11830;BME280;5972;42.134;24.718;2023-12-22T01:06:50;98146.00;;;4.14;100.00
11830;BME280;5972;42.134;24.718;2023-12-22T01:09:18;98148.78;;;4.18;100.00
11830;BME280;5972;42.134;24.718;2023-12-22T01:11:47;98159.94;;;4.08;100.00
11830;BME280;5972;42.134;24.718;2023-12-22T01:14:14;98162.75;;;4.11;100.00
11830;BME280;5972;42.134;24.718;2023-12-22T01:16:41;98168.19;;;3.91;100.00
11830;BME280;5972;42.134;24.718;2023-12-22T01:19:08;98128.03;;;3.66;100.00
11830;BME280;5972;42.134;24.718;2023-12-22T01:21:35;98153.47;;;3.72;100.00
11830;BME280;5972;42.134;24.718;2023-12-22T01:24:02;98149.84;;;3.68;100.00
11830;BME280;5972;42.134;24.718;2023-12-22T01:26:29;98133.13;;;3.59;100.00
11830;BME280;5972;42.134;24.718;2023-12-22T01:28:58;98140.47;;;3.62;100.00
11830;BME280;5972;42.134;24.718;2023-12-22T01:31:24;98130.00;;;3.57;100.00
11830;BME280;5972;42.134;24.718;2023-12-22T01:33:51;98131.88;;;3.57;100.00
11830;BME280;5972;42.134;24.718;2023-12-22T01:36:18;98112.41;;;3.56;100.00
11830;BME280;5972;42.134;24.718;2023-12-22T01:38:45;98115.75;;;3.65;100.00
11830;BME280;5972;42.134;24.718;2023-12-22T01:41:12;98114.53;;;3.63;100.00
11830;BME280;5972;42.134;24.718;2023-12-22T01:43:39;98098.25;;;3.68;100.00
11830;BME280;5972;42.134;24.718;2023-12-22T01:46:09;98094.69;;;3.64;100.00
11830;BME280;5972;42.134;24.718;2023-12-22T01:48:37;98080.19;;;3.53;100.00
11830;BME280;5972;42.134;24.718;2023-12-22T01:51:04;98102.41;;;3.65;100.00
11830;BME280;5972;42.134;24.718;2023-12-22T01:53:33;98087.66;;;3.59;100.00
11830;BME280;5972;42.134;24.718;2023-12-22T01:56:02;98090.69;;;3.70;100.00
11830;BME280;5972;42.134;24.718;2023-12-22T01:58:30;98087.91;;;3.66;100.00
11830;BME280;5972;42.134;24.718;2023-12-22T02:00:59;98076.22;;;3.71;100.00
11830;BME280;5972;42.134;24.718;2023-12-22T02:03:30;98074.88;;;3.89;100.00
11830;BME280;5972;42.134;24.718;2023-12-22T02:05:57;98065.28;;;3.76;100.00
11830;BME280;5972;42.134;24.718;2023-12-22T02:08:24;98089.13;;;3.81;100.00
11830;BME280;5972;42.134;24.718;2023-12-22T02:10:52;98076.88;;;3.80;100.00
11830;BME280;5972;42.134;24.718;2023-12-22T02:13:19;98072.88;;;3.86;100.00
11830;BME280;5972;42.134;24.718;2023-12-22T02:15:47;98074.44;;;3.87;100.00
11830;BME280;5972;42.134;24.718;2023-12-22T02:18:21;98039.09;;;3.69;100.00
11830;BME280;5972;42.134;24.718;2023-12-22T02:20:53;98064.19;;;3.89;100.00
11830;BME280;5972;42.134;24.718;2023-12-22T02:23:22;98067.09;;;3.84;100.00
11830;BME280;5972;42.134;24.718;2023-12-22T02:25:50;98073.00;;;3.78;100.00
11830;BME280;5972;42.134;24.718;2023-12-22T02:28:22;98066.50;;;3.66;100.00
11830;BME280;5972;42.134;24.718;2023-12-22T02:30:54;98059.72;;;3.69;100.00
11830;BME280;5972;42.134;24.718;2023-12-22T02:33:24;98059.72;;;3.69;100.00
11830;BME280;5972;42.134;24.718;2023-12-22T02:35:56;98051.59;;;3.78;100.00
11830;BME280;5972;42.134;24.718;2023-12-22T02:38:26;98043.09;;;3.75;100.00
11830;BME280;5972;42.134;24.718;2023-12-22T02:40:54;98040.31;;;3.60;100.00
11830;BME280;5972;42.134;24.718;2023-12-22T02:43:21;98040.44;;;3.63;100.00
11830;BME280;5972;42.134;24.718;2023-12-22T02:45:50;98048.81;;;3.62;100.00
11830;BME280;5972;42.134;24.718;2023-12-22T02:48:17;98031.97;;;3.49;100.00
11830;BME280;5972;42.134;24.718;2023-12-22T02:50:44;98041.44;;;3.71;100.00
11830;BME280;5972;42.134;24.718;2023-12-22T02:53:11;98025.16;;;3.64;100.00
11830;BME280;5972;42.134;24.718;2023-12-22T02:55:39;98044.22;;;3.74;100.00
11830;BME280;5972;42.134;24.718;2023-12-22T02:58:06;98054.13;;;3.74;100.00
11830;BME280;5972;42.134;24.718;2023-12-22T03:00:33;98053.25;;;3.70;100.00
11830;BME280;5972;42.134;24.718;2023-12-22T03:03:00;98063.41;;;3.76;100.00
11830;BME280;5972;42.134;24.718;2023-12-22T03:05:27;98063.50;;;3.80;100.00
11830;BME280;5972;42.134;24.718;2023-12-22T03:07:54;98042.78;;;3.65;100.00
11830;BME280;5972;42.134;24.718;2023-12-22T03:10:21;98077.34;;;3.82;100.00
11830;BME280;5972;42.134;24.718;2023-12-22T03:12:49;98050.25;;;3.71;100.00
11830;BME280;5972;42.134;24.718;2023-12-22T03:15:16;98064.03;;;3.73;100.00
11830;BME280;5972;42.134;24.718;2023-12-22T03:17:43;98062.16;;;3.74;100.00
11830;BME280;5972;42.134;24.718;2023-12-22T03:20:10;98052.38;;;3.66;100.00
11830;BME280;5972;42.134;24.718;2023-12-22T03:22:37;98045.78;;;3.63;100.00
11830;BME280;5972;42.134;24.718;2023-12-22T03:25:05;98043.47;;;3.62;100.00
11830;BME280;5972;42.134;24.718;2023-12-22T03:27:32;98039.66;;;3.51;100.00
11830;BME280;5972;42.134;24.718;2023-12-22T03:30:00;98051.03;;;3.60;100.00
11830;BME280;5972;42.134;24.718;2023-12-22T03:32:27;98063.94;;;3.58;100.00
11830;BME280;5972;42.134;24.718;2023-12-22T03:34:54;98056.38;;;3.60;100.00
11830;BME280;5972;42.134;24.718;2023-12-22T03:37:21;98056.25;;;3.68;100.00
11830;BME280;5972;42.134;24.718;2023-12-22T03:39:48;98055.81;;;3.66;100.00
11830;BME280;5972;42.134;24.718;2023-12-22T03:42:15;98055.59;;;3.59;100.00
11830;BME280;5972;42.134;24.718;2023-12-22T03:44:42;98052.13;;;3.59;100.00
11830;BME280;5972;42.134;24.718;2023-12-22T03:47:10;98005.00;;;3.54;100.00
11830;BME280;5972;42.134;24.718;2023-12-22T03:49:37;98015.56;;;3.63;100.00
11830;BME280;5972;42.134;24.718;2023-12-22T03:52:04;98015.03;;;3.69;100.00
11830;BME280;5972;42.134;24.718;2023-12-22T03:54:31;98028.94;;;3.75;100.00
11830;BME280;5972;42.134;24.718;2023-12-22T03:56:58;98002.88;;;3.72;100.00
11830;BME280;5972;42.134;24.718;2023-12-22T03:59:25;97999.66;;;3.79;100.00
11830;BME280;5972;42.134;24.718;2023-12-22T04:01:52;98015.03;;;3.82;100.00
11830;BME280;5972;42.134;24.718;2023-12-22T04:04:22;98009.09;;;3.88;100.00
11830;BME280;5972;42.134;24.718;2023-12-22T04:06:49;97998.41;;;3.88;100.00
11830;BME280;5972;42.134;24.718;2023-12-22T04:09:16;98004.00;;;3.83;100.00
11830;BME280;5972;42.134;24.718;2023-12-22T04:11:43;97985.38;;;3.74;100.00
11830;BME280;5972;42.134;24.718;2023-12-22T04:14:10;97994.72;;;3.81;100.00
11830;BME280;5972;42.134;24.718;2023-12-22T04:16:37;97997.75;;;3.67;100.00
11830;BME280;5972;42.134;24.718;2023-12-22T04:19:04;97990.84;;;3.78;100.00
11830;BME280;5972;42.134;24.718;2023-12-22T04:21:32;97990.41;;;3.64;100.00
11830;BME280;5972;42.134;24.718;2023-12-22T04:23:59;97986.06;;;3.71;100.00
11830;BME280;5972;42.134;24.718;2023-12-22T04:26:26;97990.28;;;3.72;100.00
11830;BME280;5972;42.134;24.718;2023-12-22T04:28:53;97991.41;;;3.71;100.00
11830;BME280;5972;42.134;24.718;2023-12-22T04:31:20;97969.22;;;3.59;100.00
11830;BME280;5972;42.134;24.718;2023-12-22T04:33:47;97992.06;;;3.81;100.00
11830;BME280;5972;42.134;24.718;2023-12-22T04:36:14;97989.72;;;3.79;100.00
11830;BME280;5972;42.134;24.718;2023-12-22T04:38:42;97972.00;;;3.62;100.00
11830;BME280;5972;42.134;24.718;2023-12-22T04:41:09;97995.84;;;3.80;100.00
11830;BME280;5972;42.134;24.718;2023-12-22T04:43:37;97999.75;;;3.82;100.00
11830;BME280;5972;42.134;24.718;2023-12-22T04:46:04;98004.09;;;3.74;100.00
11830;BME280;5972;42.134;24.718;2023-12-22T04:48:31;98001.22;;;3.67;100.00
11830;BME280;5972;42.134;24.718;2023-12-22T04:50:59;97997.22;;;3.61;100.00
11830;BME280;5972;42.134;24.718;2023-12-22T04:53:26;98000.44;;;3.55;100.00
11830;BME280;5972;42.134;24.718;2023-12-22T04:55:55;98004.22;;;3.54;100.00
11830;BME280;5972;42.134;24.718;2023-12-22T04:58:22;97991.84;;;3.49;100.00
11830;BME280;5972;42.134;24.718;2023-12-22T05:00:49;97997.50;;;3.35;100.00
11830;BME280;5972;42.134;24.718;2023-12-22T05:03:16;97979.91;;;3.34;100.00
11830;BME280;5972;42.134;24.718;2023-12-22T05:05:43;98002.09;;;3.59;100.00
11830;BME280;5972;42.134;24.718;2023-12-22T05:08:10;97983.16;;;3.40;100.00
11830;BME280;5972;42.134;24.718;2023-12-22T05:10:37;97999.00;;;3.45;100.00
11830;BME280;5972;42.134;24.718;2023-12-22T05:13:06;97994.97;;;3.27;100.00
11830;BME280;5972;42.134;24.718;2023-12-22T05:15:33;97978.91;;;3.27;100.00
11830;BME280;5972;42.134;24.718;2023-12-22T05:18:00;97992.72;;;3.41;100.00
11830;BME280;5972;42.134;24.718;2023-12-22T05:20:27;97993.16;;;3.31;100.00
11830;BME280;5972;42.134;24.718;2023-12-22T05:22:54;97994.19;;;3.51;100.00
11830;BME280;5972;42.134;24.718;2023-12-22T05:25:21;97986.94;;;3.39;100.00
11830;BME280;5972;42.134;24.718;2023-12-22T05:27:48;97975.25;;;3.44;100.00
11830;BME280;5972;42.134;24.718;2023-12-22T05:30:16;97973.38;;;3.44;100.00
11830;BME280;5972;42.134;24.718;2023-12-22T05:32:43;97976.91;;;3.48;100.00
11830;BME280;5972;42.134;24.718;2023-12-22T05:35:11;97993.28;;;3.71;100.00
11830;BME280;5972;42.134;24.718;2023-12-22T05:37:38;97977.47;;;3.66;100.00
11830;BME280;5972;42.134;24.718;2023-12-22T05:40:06;97992.50;;;3.83;100.00
11830;BME280;5972;42.134;24.718;2023-12-22T05:42:33;97981.66;;;3.91;100.00
11830;BME280;5972;42.134;24.718;2023-12-22T05:45:00;97969.59;;;4.09;100.00
11830;BME280;5972;42.134;24.718;2023-12-22T05:47:29;97974.16;;;3.45;100.00
11830;BME280;5972;42.134;24.718;2023-12-22T05:49:56;97975.78;;;3.25;100.00
11830;BME280;5972;42.134;24.718;2023-12-22T05:52:23;97974.56;;;3.34;100.00
11830;BME280;5972;42.134;24.718;2023-12-22T05:54:50;97956.31;;;3.37;100.00
11830;BME280;5972;42.134;24.718;2023-12-22T05:57:17;97978.72;;;3.56;100.00
11830;BME280;5972;42.134;24.718;2023-12-22T05:59:44;97987.16;;;3.70;100.00
11830;BME280;5972;42.134;24.718;2023-12-22T06:02:11;97992.19;;;3.84;100.00
11830;BME280;5972;42.134;24.718;2023-12-22T06:04:40;97972.31;;;3.85;100.00
11830;BME280;5972;42.134;24.718;2023-12-22T06:07:07;97981.00;;;4.06;100.00
11830;BME280;5972;42.134;24.718;2023-12-22T06:09:34;97976.59;;;4.14;100.00
11830;BME280;5972;42.134;24.718;2023-12-22T06:12:01;97974.38;;;4.16;100.00
11830;BME280;5972;42.134;24.718;2023-12-22T06:14:28;97971.69;;;4.28;100.00
11830;BME280;5972;42.134;24.718;2023-12-22T06:16:55;97973.66;;;4.31;100.00
11830;BME280;5972;42.134;24.718;2023-12-22T06:19:23;97982.69;;;4.39;100.00
11830;BME280;5972;42.134;24.718;2023-12-22T06:21:55;97990.56;;;4.47;100.00
11830;BME280;5972;42.134;24.718;2023-12-22T06:24:22;97999.28;;;4.44;100.00
11830;BME280;5972;42.134;24.718;2023-12-22T06:26:49;97988.91;;;4.43;100.00
11830;BME280;5972;42.134;24.718;2023-12-22T06:29:16;97988.13;;;4.42;100.00
11830;BME280;5972;42.134;24.718;2023-12-22T06:31:43;97998.81;;;4.54;100.00
11830;BME280;5972;42.134;24.718;2023-12-22T06:34:10;97984.56;;;4.38;100.00
11830;BME280;5972;42.134;24.718;2023-12-22T06:36:37;97990.50;;;4.32;100.00
11830;BME280;5972;42.134;24.718;2023-12-22T06:39:06;97993.50;;;4.30;100.00
11830;BME280;5972;42.134;24.718;2023-12-22T06:41:33;97999.84;;;4.50;100.00
11830;BME280;5972;42.134;24.718;2023-12-22T06:44:00;97979.88;;;4.35;100.00
11830;BME280;5972;42.134;24.718;2023-12-22T06:46:28;97999.47;;;4.51;100.00
11830;BME280;5972;42.134;24.718;2023-12-22T06:48:56;97998.31;;;4.65;100.00
11830;BME280;5972;42.134;24.718;2023-12-22T06:51:25;97981.13;;;4.66;100.00
11830;BME280;5972;42.134;24.718;2023-12-22T06:53:53;97974.25;;;4.52;100.00
11830;BME280;5972;42.134;24.718;2023-12-22T06:56:23;97976.97;;;4.68;100.00
11830;BME280;5972;42.134;24.718;2023-12-22T06:58:52;97978.09;;;4.67;100.00
11830;BME280;5972;42.134;24.718;2023-12-22T07:01:19;97990.59;;;4.35;100.00
11830;BME280;5972;42.134;24.718;2023-12-22T07:03:47;97984.34;;;4.43;100.00
11830;BME280;5972;42.134;24.718;2023-12-22T07:06:14;97975.28;;;4.48;100.00
11830;BME280;5972;42.134;24.718;2023-12-22T07:08:42;97999.78;;;4.62;100.00
11830;BME280;5972;42.134;24.718;2023-12-22T07:11:09;97990.56;;;4.75;100.00
11830;BME280;5972;42.134;24.718;2023-12-22T07:13:37;97987.50;;;4.89;100.00
11830;BME280;5972;42.134;24.718;2023-12-22T07:16:05;97991.22;;;5.00;100.00
11830;BME280;5972;42.134;24.718;2023-12-22T07:18:32;97992.69;;;5.13;100.00
11830;BME280;5972;42.134;24.718;2023-12-22T07:20:59;97994.31;;;5.02;100.00
11830;BME280;5972;42.134;24.718;2023-12-22T07:23:27;97997.97;;;4.94;100.00
11830;BME280;5972;42.134;24.718;2023-12-22T07:25:54;98003.91;;;4.87;100.00
11830;BME280;5972;42.134;24.718;2023-12-22T07:28:20;97986.75;;;4.76;100.00
11830;BME280;5972;42.134;24.718;2023-12-22T07:30:49;98001.69;;;5.05;100.00
11830;BME280;5972;42.134;24.718;2023-12-22T07:33:16;97997.97;;;5.10;100.00
11830;BME280;5972;42.134;24.718;2023-12-22T07:35:43;97994.50;;;5.25;100.00
11830;BME280;5972;42.134;24.718;2023-12-22T07:38:10;97974.28;;;5.12;100.00
11830;BME280;5972;42.134;24.718;2023-12-22T07:40:37;97976.63;;;5.29;100.00
11830;BME280;5972;42.134;24.718;2023-12-22T07:43:04;97983.19;;;5.47;100.00
11830;BME280;5972;42.134;24.718;2023-12-22T07:45:31;97988.13;;;5.61;100.00
11830;BME280;5972;42.134;24.718;2023-12-22T07:48:00;97965.59;;;5.65;100.00
11830;BME280;5972;42.134;24.718;2023-12-22T07:50:27;97971.56;;;5.74;100.00
11830;BME280;5972;42.134;24.718;2023-12-22T07:52:54;97979.84;;;6.01;100.00
11830;BME280;5972;42.134;24.718;2023-12-22T07:55:21;97961.84;;;6.20;100.00
11830;BME280;5972;42.134;24.718;2023-12-22T07:57:48;97943.16;;;6.24;100.00
11830;BME280;5972;42.134;24.718;2023-12-22T08:00:16;97964.56;;;6.40;100.00
11830;BME280;5972;42.134;24.718;2023-12-22T08:02:43;97968.16;;;6.47;100.00
11830;BME280;5972;42.134;24.718;2023-12-22T08:05:13;97964.34;;;6.48;100.00
11830;BME280;5972;42.134;24.718;2023-12-22T08:07:41;97961.44;;;6.38;100.00
11830;BME280;5972;42.134;24.718;2023-12-22T08:10:08;97961.00;;;6.36;100.00
11830;BME280;5972;42.134;24.718;2023-12-22T08:12:35;97964.41;;;6.33;100.00
11830;BME280;5972;42.134;24.718;2023-12-22T08:15:03;97954.41;;;6.14;100.00
11830;BME280;5972;42.134;24.718;2023-12-22T08:17:31;97952.53;;;6.34;100.00
11830;BME280;5972;42.134;24.718;2023-12-22T08:19:59;97963.69;;;6.36;100.00
11830;BME280;5972;42.134;24.718;2023-12-22T08:22:27;97965.94;;;6.53;100.00
11830;BME280;5972;42.134;24.718;2023-12-22T08:24:54;97977.56;;;6.57;100.00
11830;BME280;5972;42.134;24.718;2023-12-22T08:27:21;97979.81;;;6.74;100.00
11830;BME280;5972;42.134;24.718;2023-12-22T08:29:48;97946.34;;;6.72;100.00
11830;BME280;5972;42.134;24.718;2023-12-22T08:32:15;97983.72;;;6.99;100.00
11830;BME280;5972;42.134;24.718;2023-12-22T08:34:42;97987.19;;;7.00;100.00
11830;BME280;5972;42.134;24.718;2023-12-22T08:37:09;97978.47;;;7.06;100.00
11830;BME280;5972;42.134;24.718;2023-12-22T08:39:37;97984.16;;;7.01;100.00
11830;BME280;5972;42.134;24.718;2023-12-22T08:42:04;97975.31;;;7.01;100.00
11830;BME280;5972;42.134;24.718;2023-12-22T08:44:31;97979.84;;;7.20;100.00
11830;BME280;5972;42.134;24.718;2023-12-22T08:46:58;97986.44;;;7.22;100.00
11830;BME280;5972;42.134;24.718;2023-12-22T08:49:25;97986.13;;;7.27;100.00
11830;BME280;5972;42.134;24.718;2023-12-22T08:51:52;97983.13;;;7.09;100.00
11830;BME280;5972;42.134;24.718;2023-12-22T08:54:19;97945.78;;;6.82;100.00
11830;BME280;5972;42.134;24.718;2023-12-22T08:56:48;97980.88;;;7.12;100.00
11830;BME280;5972;42.134;24.718;2023-12-22T08:59:15;97985.22;;;7.20;100.00
11830;BME280;5972;42.134;24.718;2023-12-22T09:01:42;97987.03;;;7.12;100.00
11830;BME280;5972;42.134;24.718;2023-12-22T09:04:09;97981.53;;;7.05;100.00
11830;BME280;5972;42.134;24.718;2023-12-22T09:06:37;97991.28;;;7.13;100.00
11830;BME280;5972;42.134;24.718;2023-12-22T09:09:05;97975.41;;;7.08;100.00
11830;BME280;5972;42.134;24.718;2023-12-22T09:11:33;97990.22;;;7.18;100.00
11830;BME280;5972;42.134;24.718;2023-12-22T09:14:01;97981.94;;;7.07;100.00
11830;BME280;5972;42.134;24.718;2023-12-22T09:16:28;97982.31;;;7.05;100.00
11830;BME280;5972;42.134;24.718;2023-12-22T09:18:55;97990.13;;;7.14;100.00
11830;BME280;5972;42.134;24.718;2023-12-22T09:21:22;97984.34;;;7.12;100.00
11830;BME280;5972;42.134;24.718;2023-12-22T09:23:49;97958.81;;;7.02;100.00
11830;BME280;5972;42.134;24.718;2023-12-22T09:26:16;97973.94;;;7.10;100.00
11830;BME280;5972;42.134;24.718;2023-12-22T09:28:44;97977.75;;;7.09;100.00
11830;BME280;5972;42.134;24.718;2023-12-22T09:31:12;97972.56;;;7.20;100.00
11830;BME280;5972;42.134;24.718;2023-12-22T09:33:40;97973.41;;;7.24;100.00
11830;BME280;5972;42.134;24.718;2023-12-22T09:36:08;97949.22;;;7.24;100.00
11830;BME280;5972;42.134;24.718;2023-12-22T09:38:35;97968.78;;;7.25;100.00
11830;BME280;5972;42.134;24.718;2023-12-22T09:41:03;97968.31;;;7.19;100.00
11830;BME280;5972;42.134;24.718;2023-12-22T09:43:31;97970.78;;;7.28;100.00
11830;BME280;5972;42.134;24.718;2023-12-22T09:46:01;97971.56;;;7.28;100.00
11830;BME280;5972;42.134;24.718;2023-12-22T09:48:30;97972.63;;;7.46;100.00
11830;BME280;5972;42.134;24.718;2023-12-22T09:50:58;97966.94;;;7.51;100.00
11830;BME280;5972;42.134;24.718;2023-12-22T09:53:28;97966.69;;;7.60;100.00
11830;BME280;5972;42.134;24.718;2023-12-22T09:55:58;97968.22;;;7.61;100.00
11830;BME280;5972;42.134;24.718;2023-12-22T09:58:26;97965.03;;;7.78;100.00
11830;BME280;5972;42.134;24.718;2023-12-22T10:00:53;97957.13;;;7.63;100.00
11830;BME280;5972;42.134;24.718;2023-12-22T10:03:24;97965.34;;;7.73;100.00
11830;BME280;5972;42.134;24.718;2023-12-22T10:05:54;97953.94;;;7.83;100.00
11830;BME280;5972;42.134;24.718;2023-12-22T10:08:21;97959.38;;;7.87;100.00
11830;BME280;5972;42.134;24.718;2023-12-22T10:10:50;97951.03;;;7.96;100.00
11830;BME280;5972;42.134;24.718;2023-12-22T10:13:18;97953.28;;;8.20;100.00
11830;BME280;5972;42.134;24.718;2023-12-22T10:15:45;97955.59;;;8.21;100.00
11830;BME280;5972;42.134;24.718;2023-12-22T10:18:13;97955.72;;;8.28;100.00
11830;BME280;5972;42.134;24.718;2023-12-22T10:20:42;97955.88;;;8.39;100.00
11830;BME280;5972;42.134;24.718;2023-12-22T10:23:10;97956.97;;;8.34;100.00
11830;BME280;5972;42.134;24.718;2023-12-22T10:25:40;97962.13;;;8.47;100.00
11830;BME280;5972;42.134;24.718;2023-12-22T10:28:10;97947.69;;;8.32;100.00
11830;BME280;5972;42.134;24.718;2023-12-22T10:30:37;97940.94;;;8.45;100.00
11830;BME280;5972;42.134;24.718;2023-12-22T10:33:06;97948.50;;;8.36;100.00
11830;BME280;5972;42.134;24.718;2023-12-22T10:35:33;97969.47;;;8.50;100.00
11830;BME280;5972;42.134;24.718;2023-12-22T10:38:00;97961.06;;;8.55;100.00
11830;BME280;5972;42.134;24.718;2023-12-22T10:40:29;97947.91;;;8.50;100.00
11830;BME280;5972;42.134;24.718;2023-12-22T10:42:56;97959.91;;;8.56;100.00
11830;BME280;5972;42.134;24.718;2023-12-22T10:45:23;97954.94;;;8.58;100.00
11830;BME280;5972;42.134;24.718;2023-12-22T10:47:50;97958.53;;;8.69;100.00
11830;BME280;5972;42.134;24.718;2023-12-22T10:50:19;97965.84;;;8.68;100.00
11830;BME280;5972;42.134;24.718;2023-12-22T10:52:49;97972.38;;;8.67;100.00
11830;BME280;5972;42.134;24.718;2023-12-22T10:55:17;97971.22;;;8.68;100.00
11830;BME280;5972;42.134;24.718;2023-12-22T10:57:46;97955.06;;;8.68;100.00
11830;BME280;5972;42.134;24.718;2023-12-22T11:00:15;97961.97;;;8.69;100.00
11830;BME280;5972;42.134;24.718;2023-12-22T11:02:43;97960.13;;;8.73;100.00
11830;BME280;5972;42.134;24.718;2023-12-22T11:05:14;97952.69;;;8.63;100.00
11830;BME280;5972;42.134;24.718;2023-12-22T11:07:48;97938.78;;;8.61;100.00
11830;BME280;5972;42.134;24.718;2023-12-22T11:10:18;97931.16;;;8.67;100.00
11830;BME280;5972;42.134;24.718;2023-12-22T11:12:48;97933.81;;;8.63;100.00
11830;BME280;5972;42.134;24.718;2023-12-22T11:15:16;97899.50;;;8.60;100.00
11830;BME280;5972;42.134;24.718;2023-12-22T11:17:45;97914.00;;;8.86;100.00
11830;BME280;5972;42.134;24.718;2023-12-22T11:20:13;97889.34;;;8.87;100.00
11830;BME280;5972;42.134;24.718;2023-12-22T11:22:42;97901.88;;;9.09;100.00
11830;BME280;5972;42.134;24.718;2023-12-22T11:25:09;97895.84;;;9.23;100.00
11830;BME280;5972;42.134;24.718;2023-12-22T11:27:37;97887.84;;;9.37;100.00
11830;BME280;5972;42.134;24.718;2023-12-22T11:30:07;97880.25;;;9.57;100.00
11830;BME280;5972;42.134;24.718;2023-12-22T11:32:35;97870.31;;;9.72;100.00
11830;BME280;5972;42.134;24.718;2023-12-22T11:35:03;97850.34;;;9.94;100.00
11830;BME280;5972;42.134;24.718;2023-12-22T11:37:35;97850.09;;;10.20;100.00
11830;BME280;5972;42.134;24.718;2023-12-22T11:40:03;97845.56;;;10.56;100.00
11830;BME280;5972;42.134;24.718;2023-12-22T11:42:35;97840.19;;;10.95;100.00
11830;BME280;5972;42.134;24.718;2023-12-22T11:45:09;97834.78;;;11.06;100.00
11830;BME280;5972;42.134;24.718;2023-12-22T11:47:37;97837.88;;;11.18;100.00
11830;BME280;5972;42.134;24.718;2023-12-22T11:50:09;97841.31;;;11.26;100.00
11830;BME280;5972;42.134;24.718;2023-12-22T11:52:36;97835.13;;;11.15;100.00
11830;BME280;5972;42.134;24.718;2023-12-22T11:55:05;97829.75;;;11.11;100.00
11830;BME280;5972;42.134;24.718;2023-12-22T11:57:34;97805.00;;;10.88;100.00
11830;BME280;5972;42.134;24.718;2023-12-22T12:00:03;97827.03;;;11.18;100.00
11830;BME280;5972;42.134;24.718;2023-12-22T12:02:34;97824.31;;;11.36;100.00
11830;BME280;5972;42.134;24.718;2023-12-22T12:05:03;97809.97;;;11.32;100.00
11830;BME280;5972;42.134;24.718;2023-12-22T12:07:41;97789.09;;;11.33;100.00
11830;BME280;5972;42.134;24.718;2023-12-22T12:10:10;97796.81;;;11.52;100.00
11830;BME280;5972;42.134;24.718;2023-12-22T12:12:38;97797.59;;;11.42;100.00
11830;BME280;5972;42.134;24.718;2023-12-22T12:15:08;97799.09;;;11.57;100.00
11830;BME280;5972;42.134;24.718;2023-12-22T12:17:40;97805.66;;;11.74;100.00
11830;BME280;5972;42.134;24.718;2023-12-22T12:20:09;97796.31;;;11.89;100.00
11830;BME280;5972;42.134;24.718;2023-12-22T12:22:37;97792.47;;;11.86;100.00
11830;BME280;5972;42.134;24.718;2023-12-22T12:25:09;97803.69;;;11.78;100.00
11830;BME280;5972;42.134;24.718;2023-12-22T12:27:37;97810.25;;;11.84;100.00
11830;BME280;5972;42.134;24.718;2023-12-22T12:30:11;97813.38;;;11.68;100.00
11830;BME280;5972;42.134;24.718;2023-12-22T12:32:41;97823.13;;;11.51;100.00
11830;BME280;5972;42.134;24.718;2023-12-22T12:35:10;97816.94;;;11.47;100.00
11830;BME280;5972;42.134;24.718;2023-12-22T12:37:38;97825.84;;;11.48;100.00
11830;BME280;5972;42.134;24.718;2023-12-22T12:40:07;97832.03;;;11.45;100.00
11830;BME280;5972;42.134;24.718;2023-12-22T12:42:36;97835.50;;;11.45;100.00
11830;BME280;5972;42.134;24.718;2023-12-22T12:45:04;97842.84;;;11.48;100.00
11830;BME280;5972;42.134;24.718;2023-12-22T12:47:31;97848.25;;;11.48;100.00
11830;BME280;5972;42.134;24.718;2023-12-22T12:50:00;97830.84;;;11.53;100.00
11830;BME280;5972;42.134;24.718;2023-12-22T12:52:28;97866.78;;;11.71;100.00
11830;BME280;5972;42.134;24.718;2023-12-22T12:54:56;97846.69;;;11.54;100.00
11830;BME280;5972;42.134;24.718;2023-12-22T12:57:24;97863.69;;;11.73;100.00
11830;BME280;5972;42.134;24.718;2023-12-22T12:59:51;97858.69;;;11.57;100.00
11830;BME280;5972;42.134;24.718;2023-12-22T13:02:18;97866.41;;;11.69;100.00